sensor_id;sensor_type;location;lat;lon;timestamp;pressure;altitude;pressure_sealevel;temperature;humidity
23361;BME280;11852;50.082;18.554;2023-05-23T00:00:53;98317.5;;;14.35;70.6
23361;BME280;11852;50.082;18.554;2023-05-23T00:02:00;98317.01;;;14.31;70.63
23361;BME280;11852;50.082;18.554;2023-05-23T00:03:07;98316.0;;;14.32;70.51
23361;BME280;11852;50.082;18.554;2023-05-23T00:04:14;98316.5;;;14.26;70.75
23361;BME280;11852;50.082;18.554;2023-05-23T00:05:21;98316.0;;;14.1;71.27
23361;BME280;11852;50.082;18.554;2023-05-23T00:06:27;98315.5;;;14.03;71.44
23361;BME280;11852;50.082;18.554;2023-05-23T00:07:34;98317.51;;;14.01;71.63
23361;BME280;11852;50.082;18.554;2023-05-23T00:08:41;98316.0;;;14.05;71.37
23361;BME280;11852;50.082;18.554;2023-05-23T00:09:48;98316.0;;;14.09;71.21
23361;BME280;11852;50.082;18.554;2023-05-23T00:10:55;98315.0;;;14.11;71.25
23361;BME280;11852;50.082;18.554;2023-05-23T00:12:02;98317.51;;;14.1;71.32
23361;BME280;11852;50.082;18.554;2023-05-23T00:13:09;98314.0;;;14.07;71.25
23361;BME280;11852;50.082;18.554;2023-05-23T00:14:15;98314.0;;;14.03;71.38
23361;BME280;11852;50.082;18.554;2023-05-23T00:15:22;98315.0;;;14.03;71.22
23361;BME280;11852;50.082;18.554;2023-05-23T00:18:05;98315.0;;;14.03;71.22
23361;BME280;11852;50.082;18.554;2023-05-23T00:19:11;98312.0;;;14.04;71.49
23361;BME280;11852;50.082;18.554;2023-05-23T00:20:18;98311.5;;;14.01;71.59
23361;BME280;11852;50.082;18.554;2023-05-23T00:21:25;98312.5;;;13.98;71.91
23361;BME280;11852;50.082;18.554;2023-05-23T00:22:37;98310.5;;;13.97;72.11
23361;BME280;11852;50.082;18.554;2023-05-23T00:23:44;98310.5;;;14.01;72.25
23361;BME280;11852;50.082;18.554;2023-05-23T00:24:51;98309.0;;;14.03;72.26
23361;BME280;11852;50.082;18.554;2023-05-23T00:25:58;98308.0;;;14.09;72.05
23361;BME280;11852;50.082;18.554;2023-05-23T00:27:04;98306.49;;;14.11;71.85
23361;BME280;11852;50.082;18.554;2023-05-23T00:28:11;98306.49;;;14.15;71.62
23361;BME280;11852;50.082;18.554;2023-05-23T00:29:18;98307.5;;;14.16;71.44
23361;BME280;11852;50.082;18.554;2023-05-23T00:30:25;98309.0;;;14.2;71.32
23361;BME280;11852;50.082;18.554;2023-05-23T00:31:32;98308.5;;;14.22;71.26
23361;BME280;11852;50.082;18.554;2023-05-23T00:32:39;98309.5;;;14.21;71.25
23361;BME280;11852;50.082;18.554;2023-05-23T00:33:45;98309.0;;;14.21;71.31
23361;BME280;11852;50.082;18.554;2023-05-23T00:34:52;98310.5;;;14.18;71.22
23361;BME280;11852;50.082;18.554;2023-05-23T00:35:59;98310.0;;;14.14;71.31
23361;BME280;11852;50.082;18.554;2023-05-23T00:37:06;98310.0;;;14.11;71.56
23361;BME280;11852;50.082;18.554;2023-05-23T00:38:13;98311.0;;;14.08;71.68
23361;BME280;11852;50.082;18.554;2023-05-23T00:39:20;98309.0;;;14.08;71.86
23361;BME280;11852;50.082;18.554;2023-05-23T00:40:42;98308.5;;;14.08;71.91
23361;BME280;11852;50.082;18.554;2023-05-23T00:41:49;98311.0;;;13.99;72.11
23361;BME280;11852;50.082;18.554;2023-05-23T00:42:55;98307.49;;;13.96;72.22
23361;BME280;11852;50.082;18.554;2023-05-23T00:44:03;98306.5;;;13.9;72.28
23361;BME280;11852;50.082;18.554;2023-05-23T00:45:10;98308.5;;;13.87;72.46
23361;BME280;11852;50.082;18.554;2023-05-23T00:46:17;98305.0;;;13.82;72.54
23361;BME280;11852;50.082;18.554;2023-05-23T00:47:24;98309.0;;;13.81;72.61
23361;BME280;11852;50.082;18.554;2023-05-23T00:48:31;98306.99;;;13.79;72.61
23361;BME280;11852;50.082;18.554;2023-05-23T00:49:37;98307.49;;;13.75;72.65
23361;BME280;11852;50.082;18.554;2023-05-23T00:50:44;98306.5;;;13.67;73.01
23361;BME280;11852;50.082;18.554;2023-05-23T00:51:51;98302.5;;;13.6;73.47
23361;BME280;11852;50.082;18.554;2023-05-23T00:52:59;98302.5;;;13.59;73.51
23361;BME280;11852;50.082;18.554;2023-05-23T00:54:05;98300.5;;;13.58;73.49
23361;BME280;11852;50.082;18.554;2023-05-23T00:55:34;98300.5;;;13.57;73.42
23361;BME280;11852;50.082;18.554;2023-05-23T00:56:41;98297.0;;;13.56;73.65
23361;BME280;11852;50.082;18.554;2023-05-23T00:57:48;98301.0;;;13.57;73.58
23361;BME280;11852;50.082;18.554;2023-05-23T00:58:55;98302.0;;;13.55;73.73
23361;BME280;11852;50.082;18.554;2023-05-23T01:00:02;98302.5;;;13.52;73.77
23361;BME280;11852;50.082;18.554;2023-05-23T01:01:09;98301.5;;;13.44;74.0
23361;BME280;11852;50.082;18.554;2023-05-23T01:02:16;98301.0;;;13.45;74.02
23361;BME280;11852;50.082;18.554;2023-05-23T01:03:23;98301.5;;;13.47;73.83
23361;BME280;11852;50.082;18.554;2023-05-23T01:04:29;98302.5;;;13.46;73.75
23361;BME280;11852;50.082;18.554;2023-05-23T01:05:36;98302.0;;;13.4;73.9
23361;BME280;11852;50.082;18.554;2023-05-23T01:06:43;98302.5;;;13.38;73.96
23361;BME280;11852;50.082;18.554;2023-05-23T01:07:50;98305.01;;;13.34;74.11
23361;BME280;11852;50.082;18.554;2023-05-23T01:08:57;98305.5;;;13.31;74.22
23361;BME280;11852;50.082;18.554;2023-05-23T01:10:04;98304.0;;;13.34;73.93
23361;BME280;11852;50.082;18.554;2023-05-23T01:14:27;98304.5;;;13.25;74.19
23361;BME280;11852;50.082;18.554;2023-05-23T01:18:05;98298.5;;;13.23;74.34
23361;BME280;11852;50.082;18.554;2023-05-23T01:21:16;98301.0;;;13.24;74.55
23361;BME280;11852;50.082;18.554;2023-05-23T01:25:04;98300.5;;;13.14;74.82
23361;BME280;11852;50.082;18.554;2023-05-23T01:28:37;98298.5;;;13.07;75.03
23361;BME280;11852;50.082;18.554;2023-05-23T01:29:44;98297.5;;;13.09;74.9
23361;BME280;11852;50.082;18.554;2023-05-23T01:30:50;98297.0;;;13.13;74.93
23361;BME280;11852;50.082;18.554;2023-05-23T01:31:57;98298.5;;;13.04;75.26
23361;BME280;11852;50.082;18.554;2023-05-23T01:33:04;98298.5;;;13.02;75.37
23361;BME280;11852;50.082;18.554;2023-05-23T01:34:13;98297.0;;;13.05;75.22
23361;BME280;11852;50.082;18.554;2023-05-23T01:35:21;98293.5;;;13.07;75.19
23361;BME280;11852;50.082;18.554;2023-05-23T01:36:27;98292.5;;;13.12;75.19
23361;BME280;11852;50.082;18.554;2023-05-23T01:37:34;98290.5;;;13.16;75.24
23361;BME280;11852;50.082;18.554;2023-05-23T01:38:41;98294.0;;;13.2;75.28
23361;BME280;11852;50.082;18.554;2023-05-23T01:39:48;98290.0;;;13.22;75.2
23361;BME280;11852;50.082;18.554;2023-05-23T01:40:55;98293.01;;;13.22;75.13
23361;BME280;11852;50.082;18.554;2023-05-23T01:42:01;98292.01;;;13.18;75.19
23361;BME280;11852;50.082;18.554;2023-05-23T01:43:08;98292.51;;;13.18;75.28
23361;BME280;11852;50.082;18.554;2023-05-23T01:44:15;98293.01;;;13.17;75.26
23361;BME280;11852;50.082;18.554;2023-05-23T01:45:22;98293.0;;;13.15;75.31
23361;BME280;11852;50.082;18.554;2023-05-23T01:46:29;98291.5;;;13.15;75.4
23361;BME280;11852;50.082;18.554;2023-05-23T01:47:36;98292.5;;;13.15;75.39
23361;BME280;11852;50.082;18.554;2023-05-23T01:48:42;98289.0;;;13.15;75.31
23361;BME280;11852;50.082;18.554;2023-05-23T01:49:57;98288.0;;;13.14;75.27
23361;BME280;11852;50.082;18.554;2023-05-23T01:51:03;98289.0;;;13.16;75.3
23361;BME280;11852;50.082;18.554;2023-05-23T01:52:10;98289.5;;;13.16;75.34
23361;BME280;11852;50.082;18.554;2023-05-23T01:53:19;98289.5;;;13.14;75.5
23361;BME280;11852;50.082;18.554;2023-05-23T01:54:24;98288.5;;;13.15;75.43
23361;BME280;11852;50.082;18.554;2023-05-23T01:55:31;98292.5;;;13.16;75.43
23361;BME280;11852;50.082;18.554;2023-05-23T01:56:37;98291.0;;;13.14;75.6
23361;BME280;11852;50.082;18.554;2023-05-23T01:57:44;98288.0;;;13.01;75.94
23361;BME280;11852;50.082;18.554;2023-05-23T01:58:51;98288.0;;;12.93;76.18
23361;BME280;11852;50.082;18.554;2023-05-23T01:59:58;98286.5;;;12.88;76.22
23361;BME280;11852;50.082;18.554;2023-05-23T02:01:05;98286.5;;;12.84;76.35
23361;BME280;11852;50.082;18.554;2023-05-23T02:02:11;98284.0;;;12.77;76.36
23361;BME280;11852;50.082;18.554;2023-05-23T02:03:18;98284.5;;;12.76;76.46
23361;BME280;11852;50.082;18.554;2023-05-23T02:04:26;98285.0;;;12.73;76.49
23361;BME280;11852;50.082;18.554;2023-05-23T02:05:32;98286.0;;;12.74;76.49
23361;BME280;11852;50.082;18.554;2023-05-23T02:06:39;98288.5;;;12.7;76.43
23361;BME280;11852;50.082;18.554;2023-05-23T02:07:46;98287.5;;;12.73;76.43
23361;BME280;11852;50.082;18.554;2023-05-23T02:08:52;98284.5;;;12.75;76.1
23361;BME280;11852;50.082;18.554;2023-05-23T02:09:59;98285.0;;;12.74;76.08
23361;BME280;11852;50.082;18.554;2023-05-23T02:11:06;98284.0;;;12.74;76.09
23361;BME280;11852;50.082;18.554;2023-05-23T02:12:13;98286.0;;;12.76;76.01
23361;BME280;11852;50.082;18.554;2023-05-23T02:13:20;98285.0;;;12.73;75.99
23361;BME280;11852;50.082;18.554;2023-05-23T02:14:27;98280.51;;;12.7;75.79
23361;BME280;11852;50.082;18.554;2023-05-23T02:15:33;98286.0;;;12.73;75.68
23361;BME280;11852;50.082;18.554;2023-05-23T02:16:40;98281.99;;;12.71;75.73
23361;BME280;11852;50.082;18.554;2023-05-23T02:17:47;98283.5;;;12.69;75.84
23361;BME280;11852;50.082;18.554;2023-05-23T02:18:54;98283.5;;;12.65;76.08
23361;BME280;11852;50.082;18.554;2023-05-23T02:20:01;98285.0;;;12.62;76.17
23361;BME280;11852;50.082;18.554;2023-05-23T02:21:08;98287.0;;;12.61;76.32
23361;BME280;11852;50.082;18.554;2023-05-23T02:22:14;98286.5;;;12.57;76.35
23361;BME280;11852;50.082;18.554;2023-05-23T02:23:21;98289.5;;;12.55;76.49
23361;BME280;11852;50.082;18.554;2023-05-23T02:24:28;98288.5;;;12.52;76.74
23361;BME280;11852;50.082;18.554;2023-05-23T02:25:35;98290.0;;;12.48;76.88
23361;BME280;11852;50.082;18.554;2023-05-23T02:26:42;98290.0;;;12.49;76.96
23361;BME280;11852;50.082;18.554;2023-05-23T02:27:48;98288.0;;;12.54;76.95
23361;BME280;11852;50.082;18.554;2023-05-23T02:28:55;98287.5;;;12.57;76.71
23361;BME280;11852;50.082;18.554;2023-05-23T02:30:02;98288.0;;;12.58;76.7
23361;BME280;11852;50.082;18.554;2023-05-23T02:31:09;98287.0;;;12.55;76.6
23361;BME280;11852;50.082;18.554;2023-05-23T02:32:16;98285.5;;;12.55;76.71
23361;BME280;11852;50.082;18.554;2023-05-23T02:33:24;98285.0;;;12.57;76.62
23361;BME280;11852;50.082;18.554;2023-05-23T02:34:31;98285.5;;;12.55;76.57
23361;BME280;11852;50.082;18.554;2023-05-23T02:35:38;98286.5;;;12.52;76.57
23361;BME280;11852;50.082;18.554;2023-05-23T02:36:44;98284.5;;;12.52;76.64
23361;BME280;11852;50.082;18.554;2023-05-23T02:37:51;98282.99;;;12.49;76.79
23361;BME280;11852;50.082;18.554;2023-05-23T02:38:58;98282.99;;;12.42;76.89
23361;BME280;11852;50.082;18.554;2023-05-23T02:40:05;98283.5;;;12.38;77.13
23361;BME280;11852;50.082;18.554;2023-05-23T02:41:12;98280.51;;;12.43;77.07
23361;BME280;11852;50.082;18.554;2023-05-23T02:42:19;98277.0;;;12.38;77.26
23361;BME280;11852;50.082;18.554;2023-05-23T02:43:26;98277.0;;;12.4;77.15
23361;BME280;11852;50.082;18.554;2023-05-23T02:44:33;98279.0;;;12.43;77.03
23361;BME280;11852;50.082;18.554;2023-05-23T02:45:40;98276.5;;;12.42;77.14
23361;BME280;11852;50.082;18.554;2023-05-23T02:46:46;98280.01;;;12.42;77.25
23361;BME280;11852;50.082;18.554;2023-05-23T02:47:53;98281.0;;;12.41;77.47
23361;BME280;11852;50.082;18.554;2023-05-23T02:49:00;98276.5;;;12.38;77.55
23361;BME280;11852;50.082;18.554;2023-05-23T02:50:07;98278.0;;;12.39;77.54
23361;BME280;11852;50.082;18.554;2023-05-23T02:51:14;98279.0;;;12.38;77.56
23361;BME280;11852;50.082;18.554;2023-05-23T02:52:21;98278.5;;;12.31;77.72
23361;BME280;11852;50.082;18.554;2023-05-23T02:53:27;98276.0;;;12.27;77.73
23361;BME280;11852;50.082;18.554;2023-05-23T02:54:35;98277.5;;;12.3;77.45
23361;BME280;11852;50.082;18.554;2023-05-23T02:57:02;98277.5;;;12.3;77.45
23361;BME280;11852;50.082;18.554;2023-05-23T02:58:09;98273.0;;;12.27;77.54
23361;BME280;11852;50.082;18.554;2023-05-23T02:59:16;98272.5;;;12.31;77.61
23361;BME280;11852;50.082;18.554;2023-05-23T03:00:23;98272.5;;;12.31;77.63
23361;BME280;11852;50.082;18.554;2023-05-23T03:01:29;98271.5;;;12.28;77.79
23361;BME280;11852;50.082;18.554;2023-05-23T03:02:36;98270.49;;;12.32;77.77
23361;BME280;11852;50.082;18.554;2023-05-23T03:03:43;98274.0;;;12.35;77.79
23361;BME280;11852;50.082;18.554;2023-05-23T03:04:50;98270.49;;;12.39;77.56
23361;BME280;11852;50.082;18.554;2023-05-23T03:05:57;98272.0;;;12.41;77.68
23361;BME280;11852;50.082;18.554;2023-05-23T03:07:04;98269.0;;;12.42;77.65
23361;BME280;11852;50.082;18.554;2023-05-23T03:08:11;98264.0;;;12.35;77.96
23361;BME280;11852;50.082;18.554;2023-05-23T03:10:48;98264.0;;;12.35;77.96
23361;BME280;11852;50.082;18.554;2023-05-23T03:11:55;98258.5;;;12.36;78.22
23361;BME280;11852;50.082;18.554;2023-05-23T03:13:03;98257.99;;;12.35;78.31
23361;BME280;11852;50.082;18.554;2023-05-23T03:14:10;98255.51;;;12.34;78.3
23361;BME280;11852;50.082;18.554;2023-05-23T03:15:17;98253.0;;;12.37;78.33
23361;BME280;11852;50.082;18.554;2023-05-23T03:16:24;98250.5;;;12.4;78.26
23361;BME280;11852;50.082;18.554;2023-05-23T03:17:31;98252.5;;;12.38;78.34
23361;BME280;11852;50.082;18.554;2023-05-23T03:18:38;98254.0;;;12.44;78.42
23361;BME280;11852;50.082;18.554;2023-05-23T03:19:45;98254.51;;;12.45;78.42
23361;BME280;11852;50.082;18.554;2023-05-23T03:20:52;98254.0;;;12.44;78.56
23361;BME280;11852;50.082;18.554;2023-05-23T03:23:42;98254.0;;;12.44;78.56
23361;BME280;11852;50.082;18.554;2023-05-23T03:24:49;98249.5;;;12.48;78.17
23361;BME280;11852;50.082;18.554;2023-05-23T03:25:57;98253.0;;;12.5;78.18
23361;BME280;11852;50.082;18.554;2023-05-23T03:27:04;98253.5;;;12.53;78.15
23361;BME280;11852;50.082;18.554;2023-05-23T03:28:11;98254.0;;;12.56;78.1
23361;BME280;11852;50.082;18.554;2023-05-23T03:29:18;98256.5;;;12.57;78.07
23361;BME280;11852;50.082;18.554;2023-05-23T03:30:25;98253.5;;;12.55;78.18
23361;BME280;11852;50.082;18.554;2023-05-23T03:31:32;98254.0;;;12.56;78.14
23361;BME280;11852;50.082;18.554;2023-05-23T03:32:39;98251.0;;;12.55;78.26
23361;BME280;11852;50.082;18.554;2023-05-23T03:33:46;98252.5;;;12.56;78.31
23361;BME280;11852;50.082;18.554;2023-05-23T03:34:53;98251.0;;;12.53;78.53
23361;BME280;11852;50.082;18.554;2023-05-23T03:36:00;98249.0;;;12.56;78.46
23361;BME280;11852;50.082;18.554;2023-05-23T03:37:07;98253.5;;;12.59;78.35
23361;BME280;11852;50.082;18.554;2023-05-23T03:38:14;98251.0;;;12.59;78.42
23361;BME280;11852;50.082;18.554;2023-05-23T03:39:21;98248.0;;;12.59;78.59
23361;BME280;11852;50.082;18.554;2023-05-23T03:40:29;98246.5;;;12.6;78.58
23361;BME280;11852;50.082;18.554;2023-05-23T03:41:36;98244.5;;;12.6;78.57
23361;BME280;11852;50.082;18.554;2023-05-23T03:42:43;98246.0;;;12.59;78.78
23361;BME280;11852;50.082;18.554;2023-05-23T03:43:50;98248.5;;;12.63;78.79
23361;BME280;11852;50.082;18.554;2023-05-23T03:44:57;98252.5;;;12.61;78.92
23361;BME280;11852;50.082;18.554;2023-05-23T03:46:04;98254.51;;;12.59;79.22
23361;BME280;11852;50.082;18.554;2023-05-23T03:47:11;98255.51;;;12.65;79.24
23361;BME280;11852;50.082;18.554;2023-05-23T03:48:18;98255.51;;;12.68;79.32
23361;BME280;11852;50.082;18.554;2023-05-23T03:49:25;98257.0;;;12.68;79.26
23361;BME280;11852;50.082;18.554;2023-05-23T03:50:32;98254.51;;;12.72;79.33
23361;BME280;11852;50.082;18.554;2023-05-23T03:51:39;98256.0;;;12.75;79.29
23361;BME280;11852;50.082;18.554;2023-05-23T03:52:46;98256.0;;;12.78;79.15
23361;BME280;11852;50.082;18.554;2023-05-23T03:53:53;98254.51;;;12.81;78.9
23361;BME280;11852;50.082;18.554;2023-05-23T03:55:00;98256.0;;;12.82;78.87
23361;BME280;11852;50.082;18.554;2023-05-23T03:56:08;98253.5;;;12.85;78.85
23361;BME280;11852;50.082;18.554;2023-05-23T03:57:17;98253.5;;;12.88;78.81
23361;BME280;11852;50.082;18.554;2023-05-23T03:58:24;98249.5;;;12.89;78.89
23361;BME280;11852;50.082;18.554;2023-05-23T03:59:31;98248.0;;;12.9;78.94
23361;BME280;11852;50.082;18.554;2023-05-23T04:00:38;98248.0;;;12.91;78.9
23361;BME280;11852;50.082;18.554;2023-05-23T04:01:45;98253.0;;;12.92;78.83
23361;BME280;11852;50.082;18.554;2023-05-23T04:02:53;98246.5;;;12.95;78.73
23361;BME280;11852;50.082;18.554;2023-05-23T04:04:00;98245.5;;;12.95;78.82
23361;BME280;11852;50.082;18.554;2023-05-23T04:05:08;98241.5;;;12.99;78.86
23361;BME280;11852;50.082;18.554;2023-05-23T04:06:15;98241.0;;;13.04;78.82
23361;BME280;11852;50.082;18.554;2023-05-23T04:07:22;98238.5;;;13.06;78.87
23361;BME280;11852;50.082;18.554;2023-05-23T04:08:29;98235.0;;;13.07;78.9
23361;BME280;11852;50.082;18.554;2023-05-23T04:10:39;98235.0;;;13.07;78.9
23361;BME280;11852;50.082;18.554;2023-05-23T04:11:46;98237.0;;;13.15;79.08
23361;BME280;11852;50.082;18.554;2023-05-23T04:12:53;98236.0;;;13.19;79.01
23361;BME280;11852;50.082;18.554;2023-05-23T04:14:00;98236.0;;;13.23;79.04
23361;BME280;11852;50.082;18.554;2023-05-23T04:15:07;98235.0;;;13.27;79.01
23361;BME280;11852;50.082;18.554;2023-05-23T04:16:27;98232.5;;;13.31;78.87
23361;BME280;11852;50.082;18.554;2023-05-23T04:17:36;98233.5;;;13.35;78.49
23361;BME280;11852;50.082;18.554;2023-05-23T04:18:43;98233.0;;;13.36;78.43
23361;BME280;11852;50.082;18.554;2023-05-23T04:19:50;98233.5;;;13.38;78.36
23361;BME280;11852;50.082;18.554;2023-05-23T04:20:57;98229.0;;;13.4;78.23
23361;BME280;11852;50.082;18.554;2023-05-23T04:22:05;98230.5;;;13.41;78.1
23361;BME280;11852;50.082;18.554;2023-05-23T04:23:12;98230.5;;;13.44;77.97
23361;BME280;11852;50.082;18.554;2023-05-23T04:24:19;98230.0;;;13.45;77.77
23361;BME280;11852;50.082;18.554;2023-05-23T04:25:26;98230.5;;;13.5;77.6
23361;BME280;11852;50.082;18.554;2023-05-23T04:26:33;98230.5;;;13.52;77.63
23361;BME280;11852;50.082;18.554;2023-05-23T04:27:40;98229.0;;;13.54;77.48
23361;BME280;11852;50.082;18.554;2023-05-23T04:28:47;98230.5;;;13.58;77.36
23361;BME280;11852;50.082;18.554;2023-05-23T04:29:54;98226.0;;;13.58;77.23
23361;BME280;11852;50.082;18.554;2023-05-23T04:31:00;98225.5;;;13.61;77.18
23361;BME280;11852;50.082;18.554;2023-05-23T04:32:07;98223.0;;;13.62;77.16
23361;BME280;11852;50.082;18.554;2023-05-23T04:34:11;98223.0;;;13.62;77.16
23361;BME280;11852;50.082;18.554;2023-05-23T04:35:18;98226.5;;;13.69;76.99
23361;BME280;11852;50.082;18.554;2023-05-23T04:36:24;98226.5;;;13.68;77.13
23361;BME280;11852;50.082;18.554;2023-05-23T04:37:32;98227.0;;;13.76;77.18
23361;BME280;11852;50.082;18.554;2023-05-23T04:39:03;98226.5;;;13.77;77.23
23361;BME280;11852;50.082;18.554;2023-05-23T04:40:09;98224.5;;;13.81;77.36
23361;BME280;11852;50.082;18.554;2023-05-23T04:41:16;98223.0;;;13.84;77.4
23361;BME280;11852;50.082;18.554;2023-05-23T04:42:23;98223.0;;;13.86;77.42
23361;BME280;11852;50.082;18.554;2023-05-23T04:43:30;98224.0;;;13.9;77.4
23361;BME280;11852;50.082;18.554;2023-05-23T04:44:36;98226.0;;;13.91;77.39
23361;BME280;11852;50.082;18.554;2023-05-23T04:45:44;98227.0;;;13.95;77.21
23361;BME280;11852;50.082;18.554;2023-05-23T04:46:50;98228.5;;;13.99;77.12
23361;BME280;11852;50.082;18.554;2023-05-23T04:47:57;98229.0;;;13.98;77.05
23361;BME280;11852;50.082;18.554;2023-05-23T04:49:04;98227.0;;;14.02;76.87
23361;BME280;11852;50.082;18.554;2023-05-23T04:50:11;98226.5;;;13.98;76.9
23361;BME280;11852;50.082;18.554;2023-05-23T04:51:18;98228.0;;;14.03;76.75
23361;BME280;11852;50.082;18.554;2023-05-23T04:52:25;98227.5;;;14.07;76.7
23361;BME280;11852;50.082;18.554;2023-05-23T04:53:31;98229.0;;;14.09;76.53
23361;BME280;11852;50.082;18.554;2023-05-23T04:54:38;98232.5;;;14.09;76.59
23361;BME280;11852;50.082;18.554;2023-05-23T04:55:45;98232.0;;;14.1;76.54
23361;BME280;11852;50.082;18.554;2023-05-23T04:56:52;98232.99;;;14.18;76.29
23361;BME280;11852;50.082;18.554;2023-05-23T04:57:59;98233.5;;;14.19;76.29
23361;BME280;11852;50.082;18.554;2023-05-23T04:59:06;98235.5;;;14.23;76.23
23361;BME280;11852;50.082;18.554;2023-05-23T05:00:13;98233.5;;;14.23;76.22
23361;BME280;11852;50.082;18.554;2023-05-23T05:01:19;98231.99;;;14.23;76.11
23361;BME280;11852;50.082;18.554;2023-05-23T05:02:26;98231.49;;;14.3;75.89
23361;BME280;11852;50.082;18.554;2023-05-23T05:03:33;98232.49;;;14.28;76.06
23361;BME280;11852;50.082;18.554;2023-05-23T05:04:40;98230.5;;;14.32;75.91
23361;BME280;11852;50.082;18.554;2023-05-23T05:05:47;98231.99;;;14.38;75.66
23361;BME280;11852;50.082;18.554;2023-05-23T05:06:54;98232.0;;;14.45;75.53
23361;BME280;11852;50.082;18.554;2023-05-23T05:08:08;98231.0;;;14.49;75.7
23361;BME280;11852;50.082;18.554;2023-05-23T05:09:15;98228.0;;;14.6;75.46
23361;BME280;11852;50.082;18.554;2023-05-23T05:10:22;98227.5;;;14.63;75.54
23361;BME280;11852;50.082;18.554;2023-05-23T05:11:29;98227.5;;;14.66;75.53
23361;BME280;11852;50.082;18.554;2023-05-23T05:12:36;98224.5;;;14.69;75.51
23361;BME280;11852;50.082;18.554;2023-05-23T05:13:42;98225.5;;;14.69;75.51
23361;BME280;11852;50.082;18.554;2023-05-23T05:14:49;98225.0;;;14.74;75.31
23361;BME280;11852;50.082;18.554;2023-05-23T05:15:56;98227.0;;;14.84;74.96
23361;BME280;11852;50.082;18.554;2023-05-23T05:17:03;98228.0;;;14.91;74.96
23361;BME280;11852;50.082;18.554;2023-05-23T05:18:10;98225.0;;;14.99;74.74
23361;BME280;11852;50.082;18.554;2023-05-23T05:19:17;98227.0;;;15.01;74.88
23361;BME280;11852;50.082;18.554;2023-05-23T05:20:24;98225.0;;;15.05;74.94
23361;BME280;11852;50.082;18.554;2023-05-23T05:22:40;98225.0;;;15.05;74.94
23361;BME280;11852;50.082;18.554;2023-05-23T05:23:47;98223.0;;;15.15;74.76
23361;BME280;11852;50.082;18.554;2023-05-23T05:24:54;98219.0;;;15.09;75.07
23361;BME280;11852;50.082;18.554;2023-05-23T05:26:01;98217.01;;;15.17;74.84
23361;BME280;11852;50.082;18.554;2023-05-23T05:27:50;98217.01;;;15.17;74.84
23361;BME280;11852;50.082;18.554;2023-05-23T05:28:57;98218.01;;;15.26;74.71
23361;BME280;11852;50.082;18.554;2023-05-23T05:30:07;98217.51;;;15.24;74.9
23361;BME280;11852;50.082;18.554;2023-05-23T05:31:10;98218.5;;;15.28;74.69
23361;BME280;11852;50.082;18.554;2023-05-23T05:32:17;98221.0;;;15.4;74.34
23361;BME280;11852;50.082;18.554;2023-05-23T05:33:24;98218.5;;;15.47;74.15
23361;BME280;11852;50.082;18.554;2023-05-23T05:34:31;98218.0;;;15.5;74.22
23361;BME280;11852;50.082;18.554;2023-05-23T05:35:38;98218.0;;;15.53;74.21
23361;BME280;11852;50.082;18.554;2023-05-23T05:36:45;98220.0;;;15.6;74.06
23361;BME280;11852;50.082;18.554;2023-05-23T05:37:52;98218.0;;;15.66;74.17
23361;BME280;11852;50.082;18.554;2023-05-23T05:38:58;98218.5;;;15.69;74.17
23361;BME280;11852;50.082;18.554;2023-05-23T05:40:05;98217.0;;;15.74;74.04
23361;BME280;11852;50.082;18.554;2023-05-23T05:41:12;98218.5;;;15.81;73.8
23361;BME280;11852;50.082;18.554;2023-05-23T05:42:19;98220.5;;;15.84;73.8
23361;BME280;11852;50.082;18.554;2023-05-23T05:43:26;98220.0;;;15.85;73.67
23361;BME280;11852;50.082;18.554;2023-05-23T05:44:36;98220.5;;;15.89;73.59
23361;BME280;11852;50.082;18.554;2023-05-23T05:45:43;98222.5;;;15.98;73.07
23361;BME280;11852;50.082;18.554;2023-05-23T05:46:50;98220.5;;;16.05;72.92
23361;BME280;11852;50.082;18.554;2023-05-23T05:47:57;98220.0;;;16.13;72.75
23361;BME280;11852;50.082;18.554;2023-05-23T05:49:03;98222.5;;;16.2;72.55
23361;BME280;11852;50.082;18.554;2023-05-23T05:50:10;98221.5;;;16.27;72.11
23361;BME280;11852;50.082;18.554;2023-05-23T05:51:17;98218.5;;;16.32;71.86
23361;BME280;11852;50.082;18.554;2023-05-23T05:52:24;98221.5;;;16.39;71.76
23361;BME280;11852;50.082;18.554;2023-05-23T05:53:31;98222.5;;;16.44;71.71
23361;BME280;11852;50.082;18.554;2023-05-23T05:55:12;98222.5;;;16.44;71.71
23361;BME280;11852;50.082;18.554;2023-05-23T05:56:19;98215.5;;;16.54;70.86
23361;BME280;11852;50.082;18.554;2023-05-23T05:57:26;98215.0;;;16.56;70.56
23361;BME280;11852;50.082;18.554;2023-05-23T05:58:33;98213.0;;;16.46;70.38
23361;BME280;11852;50.082;18.554;2023-05-23T06:00:13;98215.0;;;16.56;70.13
23361;BME280;11852;50.082;18.554;2023-05-23T06:01:43;98215.0;;;16.58;69.9
23361;BME280;11852;50.082;18.554;2023-05-23T06:02:50;98215.0;;;16.76;70.05
23361;BME280;11852;50.082;18.554;2023-05-23T06:04:07;98213.5;;;16.77;70.21
23361;BME280;11852;50.082;18.554;2023-05-23T06:05:14;98212.0;;;16.86;70.14
23361;BME280;11852;50.082;18.554;2023-05-23T06:07:33;98212.0;;;16.86;70.14
23361;BME280;11852;50.082;18.554;2023-05-23T06:09:31;98212.0;;;16.86;70.14
23361;BME280;11852;50.082;18.554;2023-05-23T06:10:38;98199.5;;;17.2;68.79
23361;BME280;11852;50.082;18.554;2023-05-23T06:12:16;98199.5;;;17.2;68.79
23361;BME280;11852;50.082;18.554;2023-05-23T06:13:38;98198.5;;;17.27;67.79
23361;BME280;11852;50.082;18.554;2023-05-23T06:15:00;98197.5;;;17.27;67.79
23361;BME280;11852;50.082;18.554;2023-05-23T06:16:05;98197.5;;;17.27;67.79
23361;BME280;11852;50.082;18.554;2023-05-23T06:17:17;98192.51;;;17.32;66.51
23361;BME280;11852;50.082;18.554;2023-05-23T06:18:24;98193.5;;;17.76;66.11
23361;BME280;11852;50.082;18.554;2023-05-23T06:19:31;98195.49;;;17.88;65.61
23361;BME280;11852;50.082;18.554;2023-05-23T06:20:37;98194.49;;;17.99;65.86
23361;BME280;11852;50.082;18.554;2023-05-23T06:21:44;98196.0;;;18.11;65.54
23361;BME280;11852;50.082;18.554;2023-05-23T06:25:53;98196.5;;;18.19;65.15
23361;BME280;11852;50.082;18.554;2023-05-23T06:27:00;98191.0;;;18.5;64.97